sensor_id;sensor_type;location;lat;lon;timestamp;temperature;humidity
33594;DHT22;19920;52.242;20.940;2023-05-20T00:00:19;14.10;99.90
33594;DHT22;19920;52.242;20.940;2023-05-20T00:02:44;14.10;99.90
33594;DHT22;19920;52.242;20.940;2023-05-20T00:05:10;14.00;99.90
33594;DHT22;19920;52.242;20.940;2023-05-20T00:07:35;14.00;99.90
33594;DHT22;19920;52.242;20.940;2023-05-20T00:10:01;14.00;99.90
33594;DHT22;19920;52.242;20.940;2023-05-20T00:12:26;13.90;99.90
33594;DHT22;19920;52.242;20.940;2023-05-20T00:14:52;13.90;99.90
33594;DHT22;19920;52.242;20.940;2023-05-20T00:17:18;13.90;99.90
33594;DHT22;19920;52.242;20.940;2023-05-20T00:19:43;13.90;99.90
33594;DHT22;19920;52.242;20.940;2023-05-20T00:22:09;13.80;99.90
33594;DHT22;19920;52.242;20.940;2023-05-20T00:24:34;13.80;99.90
33594;DHT22;19920;52.242;20.940;2023-05-20T00:27:00;13.80;99.90
33594;DHT22;19920;52.242;20.940;2023-05-20T00:29:26;13.80;99.90
33594;DHT22;19920;52.242;20.940;2023-05-20T00:31:53;13.80;99.90
33594;DHT22;19920;52.242;20.940;2023-05-20T00:34:18;13.80;99.90
33594;DHT22;19920;52.242;20.940;2023-05-20T00:36:44;13.90;99.90
33594;DHT22;19920;52.242;20.940;2023-05-20T00:39:10;13.80;99.90
33594;DHT22;19920;52.242;20.940;2023-05-20T00:41:36;13.80;99.90
33594;DHT22;19920;52.242;20.940;2023-05-20T00:44:02;13.80;99.90
33594;DHT22;19920;52.242;20.940;2023-05-20T00:46:27;13.70;99.90
33594;DHT22;19920;52.242;20.940;2023-05-20T00:48:53;13.70;99.90
33594;DHT22;19920;52.242;20.940;2023-05-20T00:51:19;13.70;99.90
33594;DHT22;19920;52.242;20.940;2023-05-20T00:53:45;13.70;99.90
33594;DHT22;19920;52.242;20.940;2023-05-20T00:56:10;13.70;99.90
33594;DHT22;19920;52.242;20.940;2023-05-20T00:58:36;13.70;99.90
33594;DHT22;19920;52.242;20.940;2023-05-20T01:01:02;13.70;99.90
33594;DHT22;19920;52.242;20.940;2023-05-20T01:03:28;13.70;99.90
33594;DHT22;19920;52.242;20.940;2023-05-20T01:05:53;13.70;99.90
33594;DHT22;19920;52.242;20.940;2023-05-20T01:08:19;13.70;99.90
33594;DHT22;19920;52.242;20.940;2023-05-20T01:10:46;13.70;99.90
33594;DHT22;19920;52.242;20.940;2023-05-20T01:13:19;13.70;99.90
33594;DHT22;19920;52.242;20.940;2023-05-20T01:15:45;13.70;99.90
33594;DHT22;19920;52.242;20.940;2023-05-20T01:18:12;13.60;99.90
33594;DHT22;19920;52.242;20.940;2023-05-20T01:20:43;13.60;99.90
33594;DHT22;19920;52.242;20.940;2023-05-20T01:23:11;13.70;99.90
33594;DHT22;19920;52.242;20.940;2023-05-20T01:25:36;13.60;99.90
33594;DHT22;19920;52.242;20.940;2023-05-20T01:28:02;13.60;99.90
33594;DHT22;19920;52.242;20.940;2023-05-20T01:30:28;13.50;99.90
33594;DHT22;19920;52.242;20.940;2023-05-20T01:32:57;13.50;99.90
33594;DHT22;19920;52.242;20.940;2023-05-20T01:35:24;13.60;99.90
33594;DHT22;19920;52.242;20.940;2023-05-20T01:37:50;13.50;99.90
33594;DHT22;19920;52.242;20.940;2023-05-20T01:40:16;13.50;99.90
33594;DHT22;19920;52.242;20.940;2023-05-20T01:42:42;13.50;99.90
33594;DHT22;19920;52.242;20.940;2023-05-20T01:45:08;13.50;99.90
33594;DHT22;19920;52.242;20.940;2023-05-20T01:47:34;13.50;99.90
33594;DHT22;19920;52.242;20.940;2023-05-20T01:49:59;13.40;99.90
33594;DHT22;19920;52.242;20.940;2023-05-20T01:52:25;13.50;99.90
33594;DHT22;19920;52.242;20.940;2023-05-20T01:54:50;13.50;99.90
33594;DHT22;19920;52.242;20.940;2023-05-20T01:57:20;13.50;99.90
33594;DHT22;19920;52.242;20.940;2023-05-20T01:59:46;13.50;99.90
33594;DHT22;19920;52.242;20.940;2023-05-20T02:02:12;13.40;99.90
33594;DHT22;19920;52.242;20.940;2023-05-20T02:04:37;13.40;99.90
33594;DHT22;19920;52.242;20.940;2023-05-20T02:07:03;13.40;99.90
33594;DHT22;19920;52.242;20.940;2023-05-20T02:09:28;13.40;99.90
33594;DHT22;19920;52.242;20.940;2023-05-20T02:11:54;13.40;99.90
33594;DHT22;19920;52.242;20.940;2023-05-20T02:14:20;13.50;99.90
33594;DHT22;19920;52.242;20.940;2023-05-20T02:16:45;13.40;99.90
33594;DHT22;19920;52.242;20.940;2023-05-20T02:19:11;13.40;99.90
33594;DHT22;19920;52.242;20.940;2023-05-20T02:21:40;13.40;99.90
33594;DHT22;19920;52.242;20.940;2023-05-20T02:24:06;13.30;99.90
33594;DHT22;19920;52.242;20.940;2023-05-20T02:26:32;13.30;99.90
33594;DHT22;19920;52.242;20.940;2023-05-20T02:28:58;13.30;99.90
33594;DHT22;19920;52.242;20.940;2023-05-20T02:31:24;13.20;99.90
33594;DHT22;19920;52.242;20.940;2023-05-20T02:33:50;13.20;99.90
33594;DHT22;19920;52.242;20.940;2023-05-20T02:36:15;13.20;99.90
33594;DHT22;19920;52.242;20.940;2023-05-20T02:38:41;13.30;99.90
33594;DHT22;19920;52.242;20.940;2023-05-20T02:41:07;13.30;99.90
33594;DHT22;19920;52.242;20.940;2023-05-20T02:43:33;13.30;99.90
33594;DHT22;19920;52.242;20.940;2023-05-20T02:45:58;13.30;99.90
33594;DHT22;19920;52.242;20.940;2023-05-20T02:48:24;13.40;99.90
33594;DHT22;19920;52.242;20.940;2023-05-20T02:50:50;13.40;99.90
33594;DHT22;19920;52.242;20.940;2023-05-20T02:53:15;13.40;99.90
33594;DHT22;19920;52.242;20.940;2023-05-20T02:55:41;13.40;99.90
33594;DHT22;19920;52.242;20.940;2023-05-20T02:58:06;13.40;99.90
33594;DHT22;19920;52.242;20.940;2023-05-20T03:00:32;13.40;99.90
33594;DHT22;19920;52.242;20.940;2023-05-20T03:03:05;13.40;99.90
33594;DHT22;19920;52.242;20.940;2023-05-20T03:05:31;13.40;99.90
33594;DHT22;19920;52.242;20.940;2023-05-20T03:07:57;13.40;99.90
33594;DHT22;19920;52.242;20.940;2023-05-20T03:10:23;13.40;99.90
33594;DHT22;19920;52.242;20.940;2023-05-20T03:12:48;13.50;99.90
33594;DHT22;19920;52.242;20.940;2023-05-20T03:15:14;13.50;99.90
33594;DHT22;19920;52.242;20.940;2023-05-20T03:17:39;13.50;99.90
33594;DHT22;19920;52.242;20.940;2023-05-20T03:20:05;13.50;99.90
33594;DHT22;19920;52.242;20.940;2023-05-20T03:22:31;13.50;99.90
33594;DHT22;19920;52.242;20.940;2023-05-20T03:24:57;13.50;99.90
33594;DHT22;19920;52.242;20.940;2023-05-20T03:27:24;13.50;99.90
33594;DHT22;19920;52.242;20.940;2023-05-20T03:29:50;13.50;99.90
33594;DHT22;19920;52.242;20.940;2023-05-20T03:32:19;13.60;99.90
33594;DHT22;19920;52.242;20.940;2023-05-20T03:34:45;13.60;99.90
33594;DHT22;19920;52.242;20.940;2023-05-20T03:37:10;13.70;99.90
33594;DHT22;19920;52.242;20.940;2023-05-20T03:39:36;13.70;99.90
33594;DHT22;19920;52.242;20.940;2023-05-20T03:42:01;13.70;99.90
33594;DHT22;19920;52.242;20.940;2023-05-20T03:44:27;13.70;99.90
33594;DHT22;19920;52.242;20.940;2023-05-20T03:46:52;13.80;99.90
33594;DHT22;19920;52.242;20.940;2023-05-20T03:49:18;13.80;99.90
33594;DHT22;19920;52.242;20.940;2023-05-20T03:51:43;13.80;99.90
33594;DHT22;19920;52.242;20.940;2023-05-20T03:54:09;13.80;99.90
33594;DHT22;19920;52.242;20.940;2023-05-20T03:56:34;13.80;99.90
33594;DHT22;19920;52.242;20.940;2023-05-20T03:59:00;13.90;99.90
33594;DHT22;19920;52.242;20.940;2023-05-20T04:01:27;14.00;99.90
33594;DHT22;19920;52.242;20.940;2023-05-20T04:03:53;14.00;99.90
33594;DHT22;19920;52.242;20.940;2023-05-20T04:06:18;14.00;99.90
33594;DHT22;19920;52.242;20.940;2023-05-20T04:08:44;14.00;99.90
33594;DHT22;19920;52.242;20.940;2023-05-20T04:11:10;14.00;99.90
33594;DHT22;19920;52.242;20.940;2023-05-20T04:13:35;14.00;99.90
33594;DHT22;19920;52.242;20.940;2023-05-20T04:16:01;14.10;99.90
33594;DHT22;19920;52.242;20.940;2023-05-20T04:18:29;14.10;99.90
33594;DHT22;19920;52.242;20.940;2023-05-20T04:20:56;14.20;99.90
33594;DHT22;19920;52.242;20.940;2023-05-20T04:23:21;14.20;99.90
33594;DHT22;19920;52.242;20.940;2023-05-20T04:25:47;14.30;99.90
33594;DHT22;19920;52.242;20.940;2023-05-20T04:28:13;14.30;99.90
33594;DHT22;19920;52.242;20.940;2023-05-20T04:30:40;14.40;99.90
33594;DHT22;19920;52.242;20.940;2023-05-20T04:33:06;14.40;99.90
33594;DHT22;19920;52.242;20.940;2023-05-20T04:35:32;14.50;99.90
33594;DHT22;19920;52.242;20.940;2023-05-20T04:37:59;14.50;99.90
33594;DHT22;19920;52.242;20.940;2023-05-20T04:40:25;14.50;99.90
33594;DHT22;19920;52.242;20.940;2023-05-20T04:42:51;14.60;99.90
33594;DHT22;19920;52.242;20.940;2023-05-20T04:45:17;14.70;99.90
33594;DHT22;19920;52.242;20.940;2023-05-20T04:47:43;14.80;99.90
33594;DHT22;19920;52.242;20.940;2023-05-20T04:50:10;14.90;99.90
33594;DHT22;19920;52.242;20.940;2023-05-20T04:52:39;15.10;99.90
33594;DHT22;19920;52.242;20.940;2023-05-20T04:55:06;15.20;99.90
33594;DHT22;19920;52.242;20.940;2023-05-20T04:57:33;15.30;99.90
33594;DHT22;19920;52.242;20.940;2023-05-20T04:59:59;15.30;99.90
33594;DHT22;19920;52.242;20.940;2023-05-20T05:02:25;15.30;99.90
33594;DHT22;19920;52.242;20.940;2023-05-20T05:04:50;15.40;99.90
33594;DHT22;19920;52.242;20.940;2023-05-20T05:07:16;15.40;99.90
33594;DHT22;19920;52.242;20.940;2023-05-20T05:09:41;15.50;99.90
33594;DHT22;19920;52.242;20.940;2023-05-20T05:12:07;15.70;99.90
33594;DHT22;19920;52.242;20.940;2023-05-20T05:14:32;15.90;99.90
33594;DHT22;19920;52.242;20.940;2023-05-20T05:16:58;16.00;99.90
33594;DHT22;19920;52.242;20.940;2023-05-20T05:19:23;16.00;99.90
33594;DHT22;19920;52.242;20.940;2023-05-20T05:21:49;16.10;99.90
33594;DHT22;19920;52.242;20.940;2023-05-20T05:24:14;16.10;99.90
33594;DHT22;19920;52.242;20.940;2023-05-20T05:26:40;16.30;99.90
33594;DHT22;19920;52.242;20.940;2023-05-20T05:29:06;16.40;99.90
33594;DHT22;19920;52.242;20.940;2023-05-20T05:31:31;16.40;99.90
33594;DHT22;19920;52.242;20.940;2023-05-20T05:33:57;16.40;99.90
33594;DHT22;19920;52.242;20.940;2023-05-20T05:36:22;16.60;99.90
33594;DHT22;19920;52.242;20.940;2023-05-20T05:38:49;16.70;99.90
33594;DHT22;19920;52.242;20.940;2023-05-20T05:41:15;16.80;99.90
33594;DHT22;19920;52.242;20.940;2023-05-20T05:43:40;16.80;99.90
33594;DHT22;19920;52.242;20.940;2023-05-20T05:46:06;17.00;99.90
33594;DHT22;19920;52.242;20.940;2023-05-20T05:48:31;17.10;99.90
33594;DHT22;19920;52.242;20.940;2023-05-20T05:50:57;17.30;99.90
33594;DHT22;19920;52.242;20.940;2023-05-20T05:53:22;17.40;99.90
33594;DHT22;19920;52.242;20.940;2023-05-20T05:55:48;17.50;99.90
33594;DHT22;19920;52.242;20.940;2023-05-20T05:58:13;17.50;99.90
33594;DHT22;19920;52.242;20.940;2023-05-20T06:00:39;17.60;99.90
33594;DHT22;19920;52.242;20.940;2023-05-20T06:03:04;17.70;99.90
33594;DHT22;19920;52.242;20.940;2023-05-20T06:05:30;17.80;99.90
33594;DHT22;19920;52.242;20.940;2023-05-20T06:07:56;17.80;99.90
33594;DHT22;19920;52.242;20.940;2023-05-20T06:10:21;17.80;99.90
33594;DHT22;19920;52.242;20.940;2023-05-20T06:12:47;17.90;99.90
33594;DHT22;19920;52.242;20.940;2023-05-20T06:15:12;17.90;99.90
33594;DHT22;19920;52.242;20.940;2023-05-20T06:17:38;18.00;99.90
33594;DHT22;19920;52.242;20.940;2023-05-20T06:20:03;18.00;99.90
33594;DHT22;19920;52.242;20.940;2023-05-20T06:22:29;18.00;99.90
33594;DHT22;19920;52.242;20.940;2023-05-20T06:24:55;18.00;99.90
33594;DHT22;19920;52.242;20.940;2023-05-20T06:27:21;18.10;99.90
33594;DHT22;19920;52.242;20.940;2023-05-20T06:29:46;18.20;99.90
33594;DHT22;19920;52.242;20.940;2023-05-20T06:32:12;18.20;99.90
33594;DHT22;19920;52.242;20.940;2023-05-20T06:34:37;18.30;99.90
33594;DHT22;19920;52.242;20.940;2023-05-20T06:37:03;18.30;99.90
33594;DHT22;19920;52.242;20.940;2023-05-20T06:39:28;18.40;99.90
33594;DHT22;19920;52.242;20.940;2023-05-20T06:41:54;18.60;99.90
33594;DHT22;19920;52.242;20.940;2023-05-20T06:44:19;18.70;99.90
33594;DHT22;19920;52.242;20.940;2023-05-20T06:46:45;18.70;99.90
33594;DHT22;19920;52.242;20.940;2023-05-20T06:49:10;18.80;99.90
33594;DHT22;19920;52.242;20.940;2023-05-20T06:51:36;18.80;99.90
33594;DHT22;19920;52.242;20.940;2023-05-20T06:54:01;18.80;99.90
33594;DHT22;19920;52.242;20.940;2023-05-20T06:56:27;18.80;99.90
33594;DHT22;19920;52.242;20.940;2023-05-20T06:58:53;18.90;99.90
33594;DHT22;19920;52.242;20.940;2023-05-20T07:01:19;19.10;99.90
33594;DHT22;19920;52.242;20.940;2023-05-20T07:03:44;19.10;99.90
33594;DHT22;19920;52.242;20.940;2023-05-20T07:06:10;19.10;99.90
33594;DHT22;19920;52.242;20.940;2023-05-20T07:08:35;19.30;99.90
33594;DHT22;19920;52.242;20.940;2023-05-20T07:11:01;19.30;99.90
33594;DHT22;19920;52.242;20.940;2023-05-20T07:13:26;19.20;99.90
33594;DHT22;19920;52.242;20.940;2023-05-20T07:15:52;19.40;99.90
33594;DHT22;19920;52.242;20.940;2023-05-20T07:18:18;19.50;99.90
33594;DHT22;19920;52.242;20.940;2023-05-20T07:20:43;19.60;99.90
33594;DHT22;19920;52.242;20.940;2023-05-20T07:23:09;19.60;99.90
33594;DHT22;19920;52.242;20.940;2023-05-20T07:25:34;19.70;99.90
33594;DHT22;19920;52.242;20.940;2023-05-20T07:28:00;19.50;99.90
33594;DHT22;19920;52.242;20.940;2023-05-20T07:30:26;19.40;99.90
33594;DHT22;19920;52.242;20.940;2023-05-20T07:32:51;19.50;99.90
33594;DHT22;19920;52.242;20.940;2023-05-20T07:35:17;19.50;99.90
33594;DHT22;19920;52.242;20.940;2023-05-20T07:37:42;19.50;99.90
33594;DHT22;19920;52.242;20.940;2023-05-20T07:40:08;19.70;99.90
33594;DHT22;19920;52.242;20.940;2023-05-20T07:42:33;19.90;99.90
33594;DHT22;19920;52.242;20.940;2023-05-20T07:44:59;20.00;99.90
33594;DHT22;19920;52.242;20.940;2023-05-20T07:47:25;19.90;99.90
33594;DHT22;19920;52.242;20.940;2023-05-20T07:49:50;19.90;99.90
33594;DHT22;19920;52.242;20.940;2023-05-20T07:52:16;20.00;99.90
33594;DHT22;19920;52.242;20.940;2023-05-20T07:54:41;20.10;99.90
33594;DHT22;19920;52.242;20.940;2023-05-20T07:57:07;20.30;99.90
33594;DHT22;19920;52.242;20.940;2023-05-20T07:59:32;20.40;99.90
33594;DHT22;19920;52.242;20.940;2023-05-20T08:01:58;20.50;99.90
33594;DHT22;19920;52.242;20.940;2023-05-20T08:04:23;20.70;99.90
33594;DHT22;19920;52.242;20.940;2023-05-20T08:06:51;20.90;99.90
33594;DHT22;19920;52.242;20.940;2023-05-20T08:09:17;20.90;99.90
33594;DHT22;19920;52.242;20.940;2023-05-20T08:11:43;20.90;99.90
33594;DHT22;19920;52.242;20.940;2023-05-20T08:14:08;20.90;99.90
33594;DHT22;19920;52.242;20.940;2023-05-20T08:16:34;21.10;99.90
33594;DHT22;19920;52.242;20.940;2023-05-20T08:19:00;21.30;99.90
33594;DHT22;19920;52.242;20.940;2023-05-20T08:21:26;21.40;99.90
33594;DHT22;19920;52.242;20.940;2023-05-20T08:23:51;21.50;99.90
33594;DHT22;19920;52.242;20.940;2023-05-20T08:26:17;21.50;99.90
33594;DHT22;19920;52.242;20.940;2023-05-20T08:28:42;21.50;99.90
33594;DHT22;19920;52.242;20.940;2023-05-20T08:31:08;21.60;99.90
33594;DHT22;19920;52.242;20.940;2023-05-20T08:33:35;21.70;99.90
33594;DHT22;19920;52.242;20.940;2023-05-20T08:36:00;21.60;99.90
33594;DHT22;19920;52.242;20.940;2023-05-20T08:38:26;21.80;99.90
33594;DHT22;19920;52.242;20.940;2023-05-20T08:40:55;21.80;99.90
33594;DHT22;19920;52.242;20.940;2023-05-20T08:43:21;21.90;99.90
33594;DHT22;19920;52.242;20.940;2023-05-20T08:45:47;22.10;99.90
33594;DHT22;19920;52.242;20.940;2023-05-20T08:48:14;22.20;99.90
33594;DHT22;19920;52.242;20.940;2023-05-20T08:50:40;22.30;99.90
33594;DHT22;19920;52.242;20.940;2023-05-20T08:53:06;22.20;99.90
33594;DHT22;19920;52.242;20.940;2023-05-20T08:55:36;22.30;99.90
33594;DHT22;19920;52.242;20.940;2023-05-20T08:58:02;22.40;99.90
33594;DHT22;19920;52.242;20.940;2023-05-20T09:00:27;22.50;99.90
33594;DHT22;19920;52.242;20.940;2023-05-20T09:02:53;22.70;99.90
33594;DHT22;19920;52.242;20.940;2023-05-20T09:05:19;22.90;99.90
33594;DHT22;19920;52.242;20.940;2023-05-20T09:07:45;23.00;99.90
33594;DHT22;19920;52.242;20.940;2023-05-20T09:10:11;23.10;99.90
33594;DHT22;19920;52.242;20.940;2023-05-20T09:12:36;23.20;99.90
33594;DHT22;19920;52.242;20.940;2023-05-20T09:15:05;23.30;99.90
33594;DHT22;19920;52.242;20.940;2023-05-20T09:17:31;23.40;99.90
33594;DHT22;19920;52.242;20.940;2023-05-20T09:19:56;23.60;99.90
33594;DHT22;19920;52.242;20.940;2023-05-20T09:22:22;23.70;99.90
33594;DHT22;19920;52.242;20.940;2023-05-20T09:24:49;24.00;99.90
33594;DHT22;19920;52.242;20.940;2023-05-20T09:27:15;24.10;99.90
33594;DHT22;19920;52.242;20.940;2023-05-20T09:29:41;24.30;99.90
33594;DHT22;19920;52.242;20.940;2023-05-20T09:32:09;24.30;99.90
33594;DHT22;19920;52.242;20.940;2023-05-20T09:34:36;24.30;99.90
33594;DHT22;19920;52.242;20.940;2023-05-20T09:37:01;24.40;99.90
33594;DHT22;19920;52.242;20.940;2023-05-20T09:39:28;24.30;99.90
33594;DHT22;19920;52.242;20.940;2023-05-20T09:41:56;24.50;99.90
33594;DHT22;19920;52.242;20.940;2023-05-20T09:44:22;24.60;99.90
33594;DHT22;19920;52.242;20.940;2023-05-20T09:46:48;24.70;99.90
33594;DHT22;19920;52.242;20.940;2023-05-20T09:49:17;24.80;99.90
33594;DHT22;19920;52.242;20.940;2023-05-20T09:51:44;24.80;99.90
33594;DHT22;19920;52.242;20.940;2023-05-20T09:54:10;24.70;99.90
33594;DHT22;19920;52.242;20.940;2023-05-20T09:56:36;24.80;99.90
33594;DHT22;19920;52.242;20.940;2023-05-20T09:59:02;24.70;99.90
33594;DHT22;19920;52.242;20.940;2023-05-20T10:01:29;24.80;99.90
33594;DHT22;19920;52.242;20.940;2023-05-20T10:03:55;24.70;99.90
33594;DHT22;19920;52.242;20.940;2023-05-20T10:14:04;24.90;99.90
33594;DHT22;19920;52.242;20.940;2023-05-20T10:21:37;25.30;99.90
33594;DHT22;19920;52.242;20.940;2023-05-20T10:24:06;25.30;99.90
33594;DHT22;19920;52.242;20.940;2023-05-20T10:26:39;25.00;99.90
33594;DHT22;19920;52.242;20.940;2023-05-20T10:29:18;25.00;99.90
33594;DHT22;19920;52.242;20.940;2023-05-20T10:31:44;25.00;99.90
33594;DHT22;19920;52.242;20.940;2023-05-20T10:34:16;25.20;99.90
33594;DHT22;19920;52.242;20.940;2023-05-20T10:39:24;25.10;99.90
33594;DHT22;19920;52.242;20.940;2023-05-20T10:41:50;25.10;99.90
33594;DHT22;19920;52.242;20.940;2023-05-20T10:44:16;24.70;99.90
33594;DHT22;19920;52.242;20.940;2023-05-20T10:46:41;24.90;99.90
33594;DHT22;19920;52.242;20.940;2023-05-20T10:49:16;25.00;99.90
33594;DHT22;19920;52.242;20.940;2023-05-20T10:51:42;25.30;99.90
33594;DHT22;19920;52.242;20.940;2023-05-20T10:54:08;25.60;99.90
33594;DHT22;19920;52.242;20.940;2023-05-20T10:56:34;25.70;99.90
33594;DHT22;19920;52.242;20.940;2023-05-20T10:59:00;25.90;99.90
33594;DHT22;19920;52.242;20.940;2023-05-20T11:01:26;26.20;99.90
33594;DHT22;19920;52.242;20.940;2023-05-20T11:03:53;26.20;99.90
33594;DHT22;19920;52.242;20.940;2023-05-20T11:06:19;26.20;99.90
33594;DHT22;19920;52.242;20.940;2023-05-20T11:08:49;26.30;99.90
33594;DHT22;19920;52.242;20.940;2023-05-20T11:11:15;26.50;99.90
33594;DHT22;19920;52.242;20.940;2023-05-20T11:13:40;26.60;99.90
33594;DHT22;19920;52.242;20.940;2023-05-20T11:16:06;26.60;99.90
33594;DHT22;19920;52.242;20.940;2023-05-20T11:18:31;26.70;99.90
33594;DHT22;19920;52.242;20.940;2023-05-20T11:20:58;26.70;99.90
33594;DHT22;19920;52.242;20.940;2023-05-20T11:23:24;26.60;99.90
33594;DHT22;19920;52.242;20.940;2023-05-20T11:25:51;26.70;99.90
33594;DHT22;19920;52.242;20.940;2023-05-20T11:28:17;26.60;99.90
33594;DHT22;19920;52.242;20.940;2023-05-20T11:30:43;26.40;99.90
33594;DHT22;19920;52.242;20.940;2023-05-20T11:33:12;26.10;99.90
33594;DHT22;19920;52.242;20.940;2023-05-20T11:35:43;26.10;99.90
33594;DHT22;19920;52.242;20.940;2023-05-20T11:38:09;26.10;99.90
33594;DHT22;19920;52.242;20.940;2023-05-20T11:40:35;26.30;99.90
33594;DHT22;19920;52.242;20.940;2023-05-20T11:43:01;26.50;99.90
33594;DHT22;19920;52.242;20.940;2023-05-20T11:45:37;26.70;99.90
33594;DHT22;19920;52.242;20.940;2023-05-20T11:48:03;26.70;99.90
33594;DHT22;19920;52.242;20.940;2023-05-20T11:50:33;26.40;99.90
33594;DHT22;19920;52.242;20.940;2023-05-20T11:53:01;26.70;99.90
33594;DHT22;19920;52.242;20.940;2023-05-20T11:55:27;26.70;99.90
33594;DHT22;19920;52.242;20.940;2023-05-20T11:57:53;26.80;99.90
33594;DHT22;19920;52.242;20.940;2023-05-20T12:00:18;26.70;99.90
33594;DHT22;19920;52.242;20.940;2023-05-20T12:02:45;26.80;99.90
33594;DHT22;19920;52.242;20.940;2023-05-20T12:05:11;26.90;99.90
33594;DHT22;19920;52.242;20.940;2023-05-20T12:07:36;27.00;99.90
33594;DHT22;19920;52.242;20.940;2023-05-20T12:10:02;26.90;99.90
33594;DHT22;19920;52.242;20.940;2023-05-20T12:12:28;26.90;99.90
33594;DHT22;19920;52.242;20.940;2023-05-20T12:14:53;27.10;99.90
33594;DHT22;19920;52.242;20.940;2023-05-20T12:17:19;27.30;99.90
33594;DHT22;19920;52.242;20.940;2023-05-20T12:19:44;27.40;99.90
33594;DHT22;19920;52.242;20.940;2023-05-20T12:22:10;27.20;99.90
33594;DHT22;19920;52.242;20.940;2023-05-20T12:24:35;27.30;99.90
33594;DHT22;19920;52.242;20.940;2023-05-20T12:27:01;27.30;99.90
33594;DHT22;19920;52.242;20.940;2023-05-20T12:29:28;27.40;99.90
33594;DHT22;19920;52.242;20.940;2023-05-20T12:31:54;27.50;99.90
33594;DHT22;19920;52.242;20.940;2023-05-20T12:34:19;27.70;99.90
33594;DHT22;19920;52.242;20.940;2023-05-20T12:36:45;27.60;99.90
33594;DHT22;19920;52.242;20.940;2023-05-20T12:39:11;27.70;99.90
33594;DHT22;19920;52.242;20.940;2023-05-20T12:41:37;27.80;99.90
33594;DHT22;19920;52.242;20.940;2023-05-20T12:44:03;28.20;99.90
33594;DHT22;19920;52.242;20.940;2023-05-20T12:46:29;28.10;99.90
33594;DHT22;19920;52.242;20.940;2023-05-20T12:48:54;28.00;99.90
33594;DHT22;19920;52.242;20.940;2023-05-20T12:51:20;28.00;99.90
33594;DHT22;19920;52.242;20.940;2023-05-20T12:53:45;28.00;99.90
33594;DHT22;19920;52.242;20.940;2023-05-20T12:56:11;28.00;99.90
33594;DHT22;19920;52.242;20.940;2023-05-20T12:58:36;27.80;99.90
33594;DHT22;19920;52.242;20.940;2023-05-20T13:01:02;27.70;99.90
33594;DHT22;19920;52.242;20.940;2023-05-20T13:03:27;27.40;99.90
33594;DHT22;19920;52.242;20.940;2023-05-20T13:05:53;26.90;99.90
33594;DHT22;19920;52.242;20.940;2023-05-20T13:08:18;26.60;99.90
33594;DHT22;19920;52.242;20.940;2023-05-20T13:10:44;26.50;99.90
33594;DHT22;19920;52.242;20.940;2023-05-20T13:13:09;26.30;99.90
33594;DHT22;19920;52.242;20.940;2023-05-20T13:15:35;26.30;99.90
33594;DHT22;19920;52.242;20.940;2023-05-20T13:18:01;26.40;99.90
33594;DHT22;19920;52.242;20.940;2023-05-20T13:20:28;26.30;99.90
33594;DHT22;19920;52.242;20.940;2023-05-20T13:22:53;26.20;99.90
33594;DHT22;19920;52.242;20.940;2023-05-20T13:25:19;26.20;99.90
33594;DHT22;19920;52.242;20.940;2023-05-20T13:27:45;26.10;99.90
33594;DHT22;19920;52.242;20.940;2023-05-20T13:30:10;26.40;99.90
33594;DHT22;19920;52.242;20.940;2023-05-20T13:32:36;26.80;99.90
33594;DHT22;19920;52.242;20.940;2023-05-20T13:35:02;26.90;99.90
33594;DHT22;19920;52.242;20.940;2023-05-20T13:37:27;26.80;99.90
33594;DHT22;19920;52.242;20.940;2023-05-20T13:39:53;26.60;99.90
33594;DHT22;19920;52.242;20.940;2023-05-20T13:42:18;26.40;99.90
33594;DHT22;19920;52.242;20.940;2023-05-20T13:44:44;26.20;99.90
33594;DHT22;19920;52.242;20.940;2023-05-20T13:47:09;26.10;99.90
33594;DHT22;19920;52.242;20.940;2023-05-20T13:49:35;26.00;99.90
33594;DHT22;19920;52.242;20.940;2023-05-20T13:52:01;25.80;99.90
33594;DHT22;19920;52.242;20.940;2023-05-20T13:54:26;25.70;99.90
33594;DHT22;19920;52.242;20.940;2023-05-20T13:56:52;25.60;99.90
33594;DHT22;19920;52.242;20.940;2023-05-20T13:59:17;25.40;99.90
33594;DHT22;19920;52.242;20.940;2023-05-20T14:01:43;25.30;99.90
33594;DHT22;19920;52.242;20.940;2023-05-20T14:04:12;25.20;99.90
33594;DHT22;19920;52.242;20.940;2023-05-20T14:06:38;25.00;99.90
33594;DHT22;19920;52.242;20.940;2023-05-20T14:09:04;25.00;99.90
33594;DHT22;19920;52.242;20.940;2023-05-20T14:11:30;24.90;99.90
33594;DHT22;19920;52.242;20.940;2023-05-20T14:13:56;25.00;99.90
33594;DHT22;19920;52.242;20.940;2023-05-20T14:16:21;25.20;99.90
33594;DHT22;19920;52.242;20.940;2023-05-20T14:18:47;25.30;99.90
33594;DHT22;19920;52.242;20.940;2023-05-20T14:21:12;26.30;99.90
33594;DHT22;19920;52.242;20.940;2023-05-20T14:23:39;28.00;99.90
33594;DHT22;19920;52.242;20.940;2023-05-20T14:26:05;30.00;99.90
33594;DHT22;19920;52.242;20.940;2023-05-20T14:28:30;31.50;99.90
33594;DHT22;19920;52.242;20.940;2023-05-20T14:30:56;31.60;99.90
33594;DHT22;19920;52.242;20.940;2023-05-20T14:33:21;32.00;99.90
33594;DHT22;19920;52.242;20.940;2023-05-20T14:35:47;32.70;99.90
33594;DHT22;19920;52.242;20.940;2023-05-20T14:38:12;33.80;99.90
33594;DHT22;19920;52.242;20.940;2023-05-20T14:40:38;34.10;99.90
33594;DHT22;19920;52.242;20.940;2023-05-20T14:43:04;33.70;99.90
33594;DHT22;19920;52.242;20.940;2023-05-20T14:45:29;33.50;99.90
33594;DHT22;19920;52.242;20.940;2023-05-20T14:47:55;33.40;99.90
33594;DHT22;19920;52.242;20.940;2023-05-20T14:50:20;33.80;99.90
33594;DHT22;19920;52.242;20.940;2023-05-20T14:52:46;34.00;99.90
33594;DHT22;19920;52.242;20.940;2023-05-20T14:55:11;35.00;98.70
33594;DHT22;19920;52.242;20.940;2023-05-20T14:57:37;34.70;97.70
33594;DHT22;19920;52.242;20.940;2023-05-20T15:00:02;34.10;97.00
33594;DHT22;19920;52.242;20.940;2023-05-20T15:02:28;32.70;98.30
33594;DHT22;19920;52.242;20.940;2023-05-20T15:04:53;31.10;99.80
33594;DHT22;19920;52.242;20.940;2023-05-20T15:07:19;30.00;99.90
33594;DHT22;19920;52.242;20.940;2023-05-20T15:09:44;29.10;99.90
33594;DHT22;19920;52.242;20.940;2023-05-20T15:12:10;28.50;99.90
33594;DHT22;19920;52.242;20.940;2023-05-20T15:14:35;28.00;99.90
33594;DHT22;19920;52.242;20.940;2023-05-20T15:17:01;27.50;99.90
33594;DHT22;19920;52.242;20.940;2023-05-20T15:19:27;27.30;99.90
33594;DHT22;19920;52.242;20.940;2023-05-20T15:21:52;27.10;99.90